sensor_id;sensor_type;location;lat;lon;timestamp;P1;durP1;ratioP1;P2;durP2;ratioP2
12332;SDS011;6232;48.094;11.288;2023-05-07T00:01:55;5.10;;;4.70;;
12332;SDS011;6232;48.094;11.288;2023-05-07T00:04:41;6.63;;;4.60;;
12332;SDS011;6232;48.094;11.288;2023-05-07T00:07:26;4.53;;;4.10;;
12332;SDS011;6232;48.094;11.288;2023-05-07T00:10:12;5.63;;;5.03;;
12332;SDS011;6232;48.094;11.288;2023-05-07T00:12:58;10.17;;;4.93;;
12332;SDS011;6232;48.094;11.288;2023-05-07T00:15:43;6.87;;;4.90;;
12332;SDS011;6232;48.094;11.288;2023-05-07T00:18:29;4.33;;;4.00;;
12332;SDS011;6232;48.094;11.288;2023-05-07T00:21:14;6.33;;;4.10;;
12332;SDS011;6232;48.094;11.288;2023-05-07T00:24:00;5.03;;;4.23;;
12332;SDS011;6232;48.094;11.288;2023-05-07T00:26:45;6.73;;;5.27;;
12332;SDS011;6232;48.094;11.288;2023-05-07T00:29:31;7.93;;;5.47;;
12332;SDS011;6232;48.094;11.288;2023-05-07T00:32:16;5.70;;;4.20;;
12332;SDS011;6232;48.094;11.288;2023-05-07T00:35:05;4.73;;;4.20;;
12332;SDS011;6232;48.094;11.288;2023-05-07T00:37:51;5.13;;;4.60;;
12332;SDS011;6232;48.094;11.288;2023-05-07T00:40:37;4.70;;;4.30;;
12332;SDS011;6232;48.094;11.288;2023-05-07T00:43:22;4.80;;;4.40;;
12332;SDS011;6232;48.094;11.288;2023-05-07T00:46:08;5.10;;;4.63;;
12332;SDS011;6232;48.094;11.288;2023-05-07T00:48:53;14.13;;;8.33;;
12332;SDS011;6232;48.094;11.288;2023-05-07T00:51:39;8.00;;;5.43;;
12332;SDS011;6232;48.094;11.288;2023-05-07T00:54:25;8.13;;;4.90;;
12332;SDS011;6232;48.094;11.288;2023-05-07T00:57:10;5.33;;;4.83;;
12332;SDS011;6232;48.094;11.288;2023-05-07T00:59:56;5.50;;;5.00;;
12332;SDS011;6232;48.094;11.288;2023-05-07T01:02:42;5.13;;;4.60;;
12332;SDS011;6232;48.094;11.288;2023-05-07T01:05:27;5.87;;;4.53;;
12332;SDS011;6232;48.094;11.288;2023-05-07T01:08:13;10.93;;;4.43;;
12332;SDS011;6232;48.094;11.288;2023-05-07T01:11:00;5.73;;;4.83;;
12332;SDS011;6232;48.094;11.288;2023-05-07T01:13:46;9.00;;;5.40;;
12332;SDS011;6232;48.094;11.288;2023-05-07T01:16:32;4.87;;;4.47;;
12332;SDS011;6232;48.094;11.288;2023-05-07T01:19:18;5.70;;;4.60;;
12332;SDS011;6232;48.094;11.288;2023-05-07T01:22:07;6.80;;;4.90;;
12332;SDS011;6232;48.094;11.288;2023-05-07T01:24:53;5.90;;;5.30;;
12332;SDS011;6232;48.094;11.288;2023-05-07T01:27:39;13.23;;;5.87;;
12332;SDS011;6232;48.094;11.288;2023-05-07T01:30:24;5.30;;;4.80;;
12332;SDS011;6232;48.094;11.288;2023-05-07T01:33:11;5.10;;;4.50;;
12332;SDS011;6232;48.094;11.288;2023-05-07T01:35:58;5.70;;;4.63;;
12332;SDS011;6232;48.094;11.288;2023-05-07T01:38:47;8.30;;;5.07;;
12332;SDS011;6232;48.094;11.288;2023-05-07T01:41:33;7.43;;;4.87;;
12332;SDS011;6232;48.094;11.288;2023-05-07T01:44:19;5.03;;;4.60;;
12332;SDS011;6232;48.094;11.288;2023-05-07T01:47:04;5.77;;;5.27;;
12332;SDS011;6232;48.094;11.288;2023-05-07T01:49:51;5.00;;;4.50;;
12332;SDS011;6232;48.094;11.288;2023-05-07T01:52:37;6.70;;;5.30;;
12332;SDS011;6232;48.094;11.288;2023-05-07T01:55:23;11.00;;;5.80;;
12332;SDS011;6232;48.094;11.288;2023-05-07T01:58:08;5.20;;;4.27;;
12332;SDS011;6232;48.094;11.288;2023-05-07T02:00:54;5.40;;;4.90;;
12332;SDS011;6232;48.094;11.288;2023-05-07T02:03:39;5.83;;;5.20;;
12332;SDS011;6232;48.094;11.288;2023-05-07T02:06:25;6.10;;;5.50;;
12332;SDS011;6232;48.094;11.288;2023-05-07T02:09:11;8.43;;;4.83;;
12332;SDS011;6232;48.094;11.288;2023-05-07T02:11:56;6.43;;;4.70;;
12332;SDS011;6232;48.094;11.288;2023-05-07T02:14:42;6.03;;;4.30;;
12332;SDS011;6232;48.094;11.288;2023-05-07T02:17:27;10.10;;;4.60;;
12332;SDS011;6232;48.094;11.288;2023-05-07T02:20:16;9.17;;;5.40;;
12332;SDS011;6232;48.094;11.288;2023-05-07T02:23:02;5.70;;;5.20;;
12332;SDS011;6232;48.094;11.288;2023-05-07T02:25:48;6.50;;;5.10;;
12332;SDS011;6232;48.094;11.288;2023-05-07T02:28:33;7.67;;;5.07;;
12332;SDS011;6232;48.094;11.288;2023-05-07T02:31:20;7.07;;;5.70;;
12332;SDS011;6232;48.094;11.288;2023-05-07T02:34:06;11.30;;;5.20;;
12332;SDS011;6232;48.094;11.288;2023-05-07T02:36:51;8.20;;;6.63;;
12332;SDS011;6232;48.094;11.288;2023-05-07T02:39:37;6.13;;;5.53;;
12332;SDS011;6232;48.094;11.288;2023-05-07T02:42:23;6.47;;;4.70;;
12332;SDS011;6232;48.094;11.288;2023-05-07T02:45:08;6.30;;;5.33;;
12332;SDS011;6232;48.094;11.288;2023-05-07T02:47:54;6.37;;;5.30;;
12332;SDS011;6232;48.094;11.288;2023-05-07T02:50:40;8.00;;;5.60;;
12332;SDS011;6232;48.094;11.288;2023-05-07T02:53:26;9.00;;;5.03;;
12332;SDS011;6232;48.094;11.288;2023-05-07T02:56:11;7.50;;;5.00;;
12332;SDS011;6232;48.094;11.288;2023-05-07T02:58:57;6.73;;;6.10;;
12332;SDS011;6232;48.094;11.288;2023-05-07T03:01:43;5.43;;;4.93;;
12332;SDS011;6232;48.094;11.288;2023-05-07T03:04:30;5.70;;;5.17;;
12332;SDS011;6232;48.094;11.288;2023-05-07T03:07:16;9.53;;;5.13;;
12332;SDS011;6232;48.094;11.288;2023-05-07T03:10:01;6.93;;;5.40;;
12332;SDS011;6232;48.094;11.288;2023-05-07T03:12:47;6.23;;;5.50;;
12332;SDS011;6232;48.094;11.288;2023-05-07T03:15:32;7.70;;;5.17;;
12332;SDS011;6232;48.094;11.288;2023-05-07T03:18:18;5.63;;;5.13;;
12332;SDS011;6232;48.094;11.288;2023-05-07T03:21:03;6.00;;;5.20;;
12332;SDS011;6232;48.094;11.288;2023-05-07T03:23:49;7.90;;;5.30;;
12332;SDS011;6232;48.094;11.288;2023-05-07T03:26:35;6.33;;;5.73;;
12332;SDS011;6232;48.094;11.288;2023-05-07T03:29:20;6.30;;;5.70;;
12332;SDS011;6232;48.094;11.288;2023-05-07T03:32:06;8.50;;;6.07;;
12332;SDS011;6232;48.094;11.288;2023-05-07T03:34:51;5.83;;;5.30;;
12332;SDS011;6232;48.094;11.288;2023-05-07T03:37:37;6.60;;;5.67;;
12332;SDS011;6232;48.094;11.288;2023-05-07T03:40:23;5.03;;;4.63;;
12332;SDS011;6232;48.094;11.288;2023-05-07T03:43:08;6.73;;;6.03;;
12332;SDS011;6232;48.094;11.288;2023-05-07T03:45:54;10.23;;;5.93;;
12332;SDS011;6232;48.094;11.288;2023-05-07T03:48:40;6.43;;;5.33;;
12332;SDS011;6232;48.094;11.288;2023-05-07T03:51:25;7.50;;;5.13;;
12332;SDS011;6232;48.094;11.288;2023-05-07T03:54:11;6.03;;;5.47;;
12332;SDS011;6232;48.094;11.288;2023-05-07T03:56:56;7.37;;;5.23;;
12332;SDS011;6232;48.094;11.288;2023-05-07T03:59:42;7.00;;;5.73;;
12332;SDS011;6232;48.094;11.288;2023-05-07T04:02:27;5.63;;;5.13;;
12332;SDS011;6232;48.094;11.288;2023-05-07T04:05:13;7.33;;;5.83;;
12332;SDS011;6232;48.094;11.288;2023-05-07T04:08:00;6.50;;;5.90;;
12332;SDS011;6232;48.094;11.288;2023-05-07T04:10:46;7.57;;;4.73;;
12332;SDS011;6232;48.094;11.288;2023-05-07T04:13:32;12.43;;;5.73;;
12332;SDS011;6232;48.094;11.288;2023-05-07T04:16:17;6.80;;;6.00;;
12332;SDS011;6232;48.094;11.288;2023-05-07T04:19:03;10.13;;;5.80;;
12332;SDS011;6232;48.094;11.288;2023-05-07T04:21:48;6.27;;;5.63;;
12332;SDS011;6232;48.094;11.288;2023-05-07T04:24:34;7.50;;;6.73;;
12332;SDS011;6232;48.094;11.288;2023-05-07T04:27:19;6.00;;;5.40;;
12332;SDS011;6232;48.094;11.288;2023-05-07T04:30:05;7.10;;;5.87;;
12332;SDS011;6232;48.094;11.288;2023-05-07T04:32:52;7.00;;;6.30;;
12332;SDS011;6232;48.094;11.288;2023-05-07T04:35:38;7.90;;;7.00;;
12332;SDS011;6232;48.094;11.288;2023-05-07T04:38:23;6.60;;;5.70;;
12332;SDS011;6232;48.094;11.288;2023-05-07T04:41:09;7.53;;;6.83;;
12332;SDS011;6232;48.094;11.288;2023-05-07T04:43:55;9.37;;;6.57;;
12332;SDS011;6232;48.094;11.288;2023-05-07T04:46:40;7.10;;;6.10;;
12332;SDS011;6232;48.094;11.288;2023-05-07T04:49:26;10.47;;;6.63;;
12332;SDS011;6232;48.094;11.288;2023-05-07T04:52:11;11.67;;;6.03;;
12332;SDS011;6232;48.094;11.288;2023-05-07T04:54:59;6.93;;;5.93;;
12332;SDS011;6232;48.094;11.288;2023-05-07T04:57:45;6.13;;;5.53;;
12332;SDS011;6232;48.094;11.288;2023-05-07T05:00:30;11.27;;;5.27;;
12332;SDS011;6232;48.094;11.288;2023-05-07T05:03:16;11.53;;;7.07;;
12332;SDS011;6232;48.094;11.288;2023-05-07T05:06:01;12.93;;;6.40;;
12332;SDS011;6232;48.094;11.288;2023-05-07T05:08:47;8.03;;;6.37;;
12332;SDS011;6232;48.094;11.288;2023-05-07T05:11:33;9.70;;;6.87;;
12332;SDS011;6232;48.094;11.288;2023-05-07T05:14:18;7.73;;;7.03;;
12332;SDS011;6232;48.094;11.288;2023-05-07T05:17:04;7.13;;;6.50;;
12332;SDS011;6232;48.094;11.288;2023-05-07T05:19:50;7.17;;;6.03;;
12332;SDS011;6232;48.094;11.288;2023-05-07T05:22:36;7.30;;;6.37;;
12332;SDS011;6232;48.094;11.288;2023-05-07T05:25:21;7.80;;;5.87;;
12332;SDS011;6232;48.094;11.288;2023-05-07T05:28:07;6.80;;;6.20;;
12332;SDS011;6232;48.094;11.288;2023-05-07T05:30:52;6.30;;;5.70;;
12332;SDS011;6232;48.094;11.288;2023-05-07T05:33:38;7.03;;;6.33;;
12332;SDS011;6232;48.094;11.288;2023-05-07T05:36:24;7.43;;;6.60;;
12332;SDS011;6232;48.094;11.288;2023-05-07T05:39:09;6.73;;;6.13;;
12332;SDS011;6232;48.094;11.288;2023-05-07T05:41:55;7.20;;;5.83;;
12332;SDS011;6232;48.094;11.288;2023-05-07T05:44:40;7.87;;;6.10;;
12332;SDS011;6232;48.094;11.288;2023-05-07T05:47:26;6.03;;;5.53;;
12332;SDS011;6232;48.094;11.288;2023-05-07T05:50:11;5.70;;;5.20;;
12332;SDS011;6232;48.094;11.288;2023-05-07T05:52:57;5.50;;;5.00;;
12332;SDS011;6232;48.094;11.288;2023-05-07T05:55:43;5.80;;;5.10;;
12332;SDS011;6232;48.094;11.288;2023-05-07T05:58:29;5.73;;;5.23;;
12332;SDS011;6232;48.094;11.288;2023-05-07T06:01:14;5.10;;;4.60;;
12332;SDS011;6232;48.094;11.288;2023-05-07T06:04:00;9.27;;;5.20;;
12332;SDS011;6232;48.094;11.288;2023-05-07T06:06:45;5.90;;;5.10;;
12332;SDS011;6232;48.094;11.288;2023-05-07T06:09:31;7.57;;;5.13;;
12332;SDS011;6232;48.094;11.288;2023-05-07T06:12:16;7.33;;;5.50;;
12332;SDS011;6232;48.094;11.288;2023-05-07T06:15:02;6.00;;;5.30;;
12332;SDS011;6232;48.094;11.288;2023-05-07T06:17:48;8.30;;;5.60;;
12332;SDS011;6232;48.094;11.288;2023-05-07T06:20:34;5.60;;;4.97;;
12332;SDS011;6232;48.094;11.288;2023-05-07T06:23:19;8.60;;;6.10;;
12332;SDS011;6232;48.094;11.288;2023-05-07T06:26:05;5.50;;;4.40;;
12332;SDS011;6232;48.094;11.288;2023-05-07T06:28:50;4.97;;;4.37;;
12332;SDS011;6232;48.094;11.288;2023-05-07T06:31:37;5.90;;;4.77;;
12332;SDS011;6232;48.094;11.288;2023-05-07T06:34:22;6.43;;;4.60;;
12332;SDS011;6232;48.094;11.288;2023-05-07T06:37:08;7.37;;;4.53;;
12332;SDS011;6232;48.094;11.288;2023-05-07T06:39:53;5.33;;;3.83;;
12332;SDS011;6232;48.094;11.288;2023-05-07T06:42:39;6.60;;;4.67;;
12332;SDS011;6232;48.094;11.288;2023-05-07T06:45:24;7.50;;;3.93;;
12332;SDS011;6232;48.094;11.288;2023-05-07T06:48:10;4.07;;;3.77;;
12332;SDS011;6232;48.094;11.288;2023-05-07T06:50:56;4.80;;;3.60;;
12332;SDS011;6232;48.094;11.288;2023-05-07T06:53:43;4.13;;;3.23;;
12332;SDS011;6232;48.094;11.288;2023-05-07T06:56:28;4.37;;;3.97;;
12332;SDS011;6232;48.094;11.288;2023-05-07T06:59:14;9.07;;;4.23;;
12332;SDS011;6232;48.094;11.288;2023-05-07T07:01:59;4.23;;;3.67;;
12332;SDS011;6232;48.094;11.288;2023-05-07T07:04:45;4.10;;;3.60;;
12332;SDS011;6232;48.094;11.288;2023-05-07T07:07:30;4.50;;;4.10;;
12332;SDS011;6232;48.094;11.288;2023-05-07T07:10:16;5.50;;;4.97;;
12332;SDS011;6232;48.094;11.288;2023-05-07T07:13:01;5.40;;;3.87;;
12332;SDS011;6232;48.094;11.288;2023-05-07T07:15:47;4.30;;;3.77;;
12332;SDS011;6232;48.094;11.288;2023-05-07T07:18:32;6.27;;;3.77;;
12332;SDS011;6232;48.094;11.288;2023-05-07T07:21:18;3.80;;;3.50;;
12332;SDS011;6232;48.094;11.288;2023-05-07T07:24:04;5.47;;;3.60;;
12332;SDS011;6232;48.094;11.288;2023-05-07T07:26:49;3.67;;;3.37;;
12332;SDS011;6232;48.094;11.288;2023-05-07T07:29:35;3.30;;;3.10;;
12332;SDS011;6232;48.094;11.288;2023-05-07T07:32:20;10.27;;;3.17;;
12332;SDS011;6232;48.094;11.288;2023-05-07T07:35:06;3.40;;;3.10;;
12332;SDS011;6232;48.094;11.288;2023-05-07T07:37:52;4.63;;;2.93;;
12332;SDS011;6232;48.094;11.288;2023-05-07T07:40:38;4.40;;;4.00;;
12332;SDS011;6232;48.094;11.288;2023-05-07T07:43:24;4.70;;;3.43;;
12332;SDS011;6232;48.094;11.288;2023-05-07T07:46:09;3.63;;;2.87;;
12332;SDS011;6232;48.094;11.288;2023-05-07T07:48:55;3.23;;;2.93;;
12332;SDS011;6232;48.094;11.288;2023-05-07T07:51:40;4.37;;;2.77;;
12332;SDS011;6232;48.094;11.288;2023-05-07T07:54:26;2.80;;;2.50;;
12332;SDS011;6232;48.094;11.288;2023-05-07T07:57:12;3.33;;;2.77;;
12332;SDS011;6232;48.094;11.288;2023-05-07T07:59:57;3.23;;;2.93;;
12332;SDS011;6232;48.094;11.288;2023-05-07T08:02:43;3.17;;;2.60;;
12332;SDS011;6232;48.094;11.288;2023-05-07T08:05:29;3.27;;;2.47;;
12332;SDS011;6232;48.094;11.288;2023-05-07T08:08:14;3.90;;;2.83;;
12332;SDS011;6232;48.094;11.288;2023-05-07T08:11:00;5.23;;;2.50;;
12332;SDS011;6232;48.094;11.288;2023-05-07T08:13:46;4.53;;;2.80;;
12332;SDS011;6232;48.094;11.288;2023-05-07T08:16:32;2.60;;;2.40;;
12332;SDS011;6232;48.094;11.288;2023-05-07T08:19:17;4.00;;;2.97;;
12332;SDS011;6232;48.094;11.288;2023-05-07T08:22:03;4.03;;;2.67;;
12332;SDS011;6232;48.094;11.288;2023-05-07T08:24:49;2.80;;;2.60;;
12332;SDS011;6232;48.094;11.288;2023-05-07T08:27:35;3.07;;;2.37;;
12332;SDS011;6232;48.094;11.288;2023-05-07T08:30:20;3.10;;;2.23;;
12332;SDS011;6232;48.094;11.288;2023-05-07T08:33:06;2.57;;;2.37;;
12332;SDS011;6232;48.094;11.288;2023-05-07T08:35:53;4.00;;;2.63;;
12332;SDS011;6232;48.094;11.288;2023-05-07T08:38:39;2.57;;;2.37;;
12332;SDS011;6232;48.094;11.288;2023-05-07T08:41:26;2.80;;;2.60;;
12332;SDS011;6232;48.094;11.288;2023-05-07T08:44:12;2.93;;;2.53;;
12332;SDS011;6232;48.094;11.288;2023-05-07T08:46:57;3.00;;;2.50;;
12332;SDS011;6232;48.094;11.288;2023-05-07T08:49:43;4.60;;;2.80;;
12332;SDS011;6232;48.094;11.288;2023-05-07T08:52:29;3.00;;;2.70;;
12332;SDS011;6232;48.094;11.288;2023-05-07T08:55:15;2.83;;;2.43;;
12332;SDS011;6232;48.094;11.288;2023-05-07T08:58:00;4.40;;;2.93;;
12332;SDS011;6232;48.094;11.288;2023-05-07T09:00:46;2.37;;;2.10;;
12332;SDS011;6232;48.094;11.288;2023-05-07T09:03:32;2.23;;;2.03;;
12332;SDS011;6232;48.094;11.288;2023-05-07T09:06:18;3.80;;;2.47;;
12332;SDS011;6232;48.094;11.288;2023-05-07T09:09:03;2.60;;;2.33;;
12332;SDS011;6232;48.094;11.288;2023-05-07T09:11:56;2.23;;;2.13;;
12332;SDS011;6232;48.094;11.288;2023-05-07T09:14:41;6.93;;;2.40;;
12332;SDS011;6232;48.094;11.288;2023-05-07T09:17:27;2.97;;;2.67;;
12332;SDS011;6232;48.094;11.288;2023-05-07T09:20:13;5.23;;;3.70;;
12332;SDS011;6232;48.094;11.288;2023-05-07T09:22:58;2.73;;;2.50;;
12332;SDS011;6232;48.094;11.288;2023-05-07T09:25:44;7.40;;;2.37;;
12332;SDS011;6232;48.094;11.288;2023-05-07T09:28:30;2.40;;;2.20;;
12332;SDS011;6232;48.094;11.288;2023-05-07T09:31:15;5.40;;;2.00;;
12332;SDS011;6232;48.094;11.288;2023-05-07T09:34:01;2.93;;;1.97;;
12332;SDS011;6232;48.094;11.288;2023-05-07T09:36:46;2.20;;;2.03;;
12332;SDS011;6232;48.094;11.288;2023-05-07T09:40:05;3.53;;;2.33;;
12332;SDS011;6232;48.094;11.288;2023-05-07T09:42:44;3.93;;;2.30;;
12332;SDS011;6232;48.094;11.288;2023-05-07T09:45:30;4.10;;;2.63;;
12332;SDS011;6232;48.094;11.288;2023-05-07T09:48:15;2.20;;;2.00;;
12332;SDS011;6232;48.094;11.288;2023-05-07T09:51:02;2.00;;;1.80;;
12332;SDS011;6232;48.094;11.288;2023-05-07T09:53:52;2.17;;;1.97;;
12332;SDS011;6232;48.094;11.288;2023-05-07T09:56:38;3.23;;;2.03;;
12332;SDS011;6232;48.094;11.288;2023-05-07T09:59:26;2.57;;;2.37;;
12332;SDS011;6232;48.094;11.288;2023-05-07T10:02:12;2.20;;;2.00;;
12332;SDS011;6232;48.094;11.288;2023-05-07T10:04:59;3.27;;;2.17;;
12332;SDS011;6232;48.094;11.288;2023-05-07T10:07:47;2.40;;;1.90;;
12332;SDS011;6232;48.094;11.288;2023-05-07T10:10:33;2.03;;;1.83;;
12332;SDS011;6232;48.094;11.288;2023-05-07T10:13:19;3.30;;;2.00;;
12332;SDS011;6232;48.094;11.288;2023-05-07T10:16:04;2.87;;;2.23;;
12332;SDS011;6232;48.094;11.288;2023-05-07T10:18:50;2.03;;;1.73;;
12332;SDS011;6232;48.094;11.288;2023-05-07T10:21:36;3.07;;;1.50;;
12332;SDS011;6232;48.094;11.288;2023-05-07T10:24:26;3.33;;;1.70;;
12332;SDS011;6232;48.094;11.288;2023-05-07T10:27:12;1.67;;;1.33;;
12332;SDS011;6232;48.094;11.288;2023-05-07T10:30:18;2.07;;;1.60;;
12332;SDS011;6232;48.094;11.288;2023-05-07T10:33:08;3.23;;;2.10;;
12332;SDS011;6232;48.094;11.288;2023-05-07T10:36:00;2.63;;;1.80;;
12332;SDS011;6232;48.094;11.288;2023-05-07T10:38:46;2.30;;;1.80;;
12332;SDS011;6232;48.094;11.288;2023-05-07T10:41:32;3.73;;;1.83;;
12332;SDS011;6232;48.094;11.288;2023-05-07T10:44:30;2.67;;;2.00;;
12332;SDS011;6232;48.094;11.288;2023-05-07T10:47:16;1.80;;;1.70;;
12332;SDS011;6232;48.094;11.288;2023-05-07T10:53:18;1.87;;;1.70;;
12332;SDS011;6232;48.094;11.288;2023-05-07T10:59:23;3.50;;;2.10;;
12332;SDS011;6232;48.094;11.288;2023-05-07T11:02:05;3.67;;;2.33;;
12332;SDS011;6232;48.094;11.288;2023-05-07T11:05:38;2.33;;;2.10;;
12332;SDS011;6232;48.094;11.288;2023-05-07T11:07:59;31.50;;;13.80;;
12332;SDS011;6232;48.094;11.288;2023-05-07T11:10:55;2.70;;;2.10;;
12332;SDS011;6232;48.094;11.288;2023-05-07T11:13:45;9.07;;;4.97;;
12332;SDS011;6232;48.094;11.288;2023-05-07T11:16:30;3.20;;;2.40;;
12332;SDS011;6232;48.094;11.288;2023-05-07T11:19:25;2.90;;;1.97;;
12332;SDS011;6232;48.094;11.288;2023-05-07T11:25:19;3.43;;;2.00;;
12332;SDS011;6232;48.094;11.288;2023-05-07T11:28:06;2.33;;;2.13;;
12332;SDS011;6232;48.094;11.288;2023-05-07T11:30:52;2.90;;;1.57;;
12332;SDS011;6232;48.094;11.288;2023-05-07T11:33:38;2.63;;;1.90;;
12332;SDS011;6232;48.094;11.288;2023-05-07T11:36:24;3.50;;;1.90;;
12332;SDS011;6232;48.094;11.288;2023-05-07T11:39:28;1.80;;;1.70;;
12332;SDS011;6232;48.094;11.288;2023-05-07T11:42:31;3.05;;;2.00;;
12332;SDS011;6232;48.094;11.288;2023-05-07T11:45:22;2.17;;;1.52;;
12332;SDS011;6232;48.094;11.288;2023-05-07T11:48:08;1.63;;;1.52;;
12332;SDS011;6232;48.094;11.288;2023-05-07T11:51:00;2.05;;;1.52;;
12332;SDS011;6232;48.094;11.288;2023-05-07T11:53:46;3.13;;;1.73;;
12332;SDS011;6232;48.094;11.288;2023-05-07T11:56:33;5.38;;;2.28;;
12332;SDS011;6232;48.094;11.288;2023-05-07T11:59:19;26.90;;;3.00;;
12332;SDS011;6232;48.094;11.288;2023-05-07T12:02:04;1.70;;;1.60;;
12332;SDS011;6232;48.094;11.288;2023-05-07T12:04:53;2.13;;;1.73;;
12332;SDS011;6232;48.094;11.288;2023-05-07T12:07:39;2.60;;;1.80;;
12332;SDS011;6232;48.094;11.288;2023-05-07T12:10:25;2.93;;;1.87;;
12332;SDS011;6232;48.094;11.288;2023-05-07T12:13:23;2.03;;;1.57;;
12332;SDS011;6232;48.094;11.288;2023-05-07T12:16:10;3.03;;;1.60;;
12332;SDS011;6232;48.094;11.288;2023-05-07T12:18:56;2.10;;;1.80;;
12332;SDS011;6232;48.094;11.288;2023-05-07T12:21:44;2.27;;;1.60;;
12332;SDS011;6232;48.094;11.288;2023-05-07T12:24:42;4.47;;;1.90;;
12332;SDS011;6232;48.094;11.288;2023-05-07T12:27:28;3.63;;;1.87;;
12332;SDS011;6232;48.094;11.288;2023-05-07T12:30:13;2.20;;;2.00;;
12332;SDS011;6232;48.094;11.288;2023-05-07T12:32:59;2.10;;;1.90;;
12332;SDS011;6232;48.094;11.288;2023-05-07T12:35:45;2.53;;;2.20;;
12332;SDS011;6232;48.094;11.288;2023-05-07T12:38:34;3.47;;;1.80;;
12332;SDS011;6232;48.094;11.288;2023-05-07T12:41:20;4.73;;;2.33;;
12332;SDS011;6232;48.094;11.288;2023-05-07T12:44:10;2.87;;;1.73;;
12332;SDS011;6232;48.094;11.288;2023-05-07T12:46:56;4.00;;;2.20;;
12332;SDS011;6232;48.094;11.288;2023-05-07T12:49:42;2.30;;;2.13;;
12332;SDS011;6232;48.094;11.288;2023-05-07T12:52:28;1.77;;;1.67;;
12332;SDS011;6232;48.094;11.288;2023-05-07T12:55:15;3.73;;;2.20;;
12332;SDS011;6232;48.094;11.288;2023-05-07T12:58:01;3.03;;;1.90;;
12332;SDS011;6232;48.094;11.288;2023-05-07T13:00:48;2.43;;;1.93;;
12332;SDS011;6232;48.094;11.288;2023-05-07T13:03:34;2.77;;;1.97;;
12332;SDS011;6232;48.094;11.288;2023-05-07T13:06:20;6.13;;;2.10;;
12332;SDS011;6232;48.094;11.288;2023-05-07T13:09:06;2.43;;;1.83;;
12332;SDS011;6232;48.094;11.288;2023-05-07T13:11:52;2.70;;;2.17;;
12332;SDS011;6232;48.094;11.288;2023-05-07T13:14:37;2.50;;;2.03;;
12332;SDS011;6232;48.094;11.288;2023-05-07T13:17:23;4.17;;;2.20;;
12332;SDS011;6232;48.094;11.288;2023-05-07T13:20:09;1.93;;;1.70;;
12332;SDS011;6232;48.094;11.288;2023-05-07T13:22:54;1.95;;;1.73;;
12332;SDS011;6232;48.094;11.288;2023-05-07T13:25:40;2.45;;;1.80;;
12332;SDS011;6232;48.094;11.288;2023-05-07T13:28:26;1.70;;;1.58;;
12332;SDS011;6232;48.094;11.288;2023-05-07T13:31:11;6.05;;;2.10;;
12332;SDS011;6232;48.094;11.288;2023-05-07T13:33:57;3.58;;;1.70;;
12332;SDS011;6232;48.094;11.288;2023-05-07T13:36:42;1.50;;;1.40;;
12332;SDS011;6232;48.094;11.288;2023-05-07T13:39:28;2.03;;;1.60;;
12332;SDS011;6232;48.094;11.288;2023-05-07T13:42:13;4.60;;;1.80;;
12332;SDS011;6232;48.094;11.288;2023-05-07T13:44:59;2.05;;;1.60;;
12332;SDS011;6232;48.094;11.288;2023-05-07T13:47:45;2.33;;;2.13;;
12332;SDS011;6232;48.094;11.288;2023-05-07T13:50:31;1.58;;;1.48;;
12332;SDS011;6232;48.094;11.288;2023-05-07T13:53:17;2.03;;;1.50;;
12332;SDS011;6232;48.094;11.288;2023-05-07T13:56:03;2.00;;;1.63;;
12332;SDS011;6232;48.094;11.288;2023-05-07T13:58:49;2.07;;;1.53;;
12332;SDS011;6232;48.094;11.288;2023-05-07T14:01:35;5.43;;;1.90;;
12332;SDS011;6232;48.094;11.288;2023-05-07T14:04:21;1.60;;;1.50;;
12332;SDS011;6232;48.094;11.288;2023-05-07T14:07:06;3.50;;;1.93;;
12332;SDS011;6232;48.094;11.288;2023-05-07T14:09:52;2.67;;;2.00;;
12332;SDS011;6232;48.094;11.288;2023-05-07T14:12:37;1.93;;;1.67;;
12332;SDS011;6232;48.094;11.288;2023-05-07T14:15:23;2.37;;;1.70;;
12332;SDS011;6232;48.094;11.288;2023-05-07T14:18:08;5.60;;;1.83;;
12332;SDS011;6232;48.094;11.288;2023-05-07T14:20:54;4.37;;;2.30;;
12332;SDS011;6232;48.094;11.288;2023-05-07T14:23:39;2.83;;;2.30;;
12332;SDS011;6232;48.094;11.288;2023-05-07T14:26:25;2.10;;;1.53;;
12332;SDS011;6232;48.094;11.288;2023-05-07T14:29:12;1.43;;;1.33;;
12332;SDS011;6232;48.094;11.288;2023-05-07T14:31:57;1.83;;;1.43;;
12332;SDS011;6232;48.094;11.288;2023-05-07T14:34:43;1.90;;;1.80;;
12332;SDS011;6232;48.094;11.288;2023-05-07T14:37:29;2.37;;;1.93;;
12332;SDS011;6232;48.094;11.288;2023-05-07T14:40:15;2.90;;;2.20;;
12332;SDS011;6232;48.094;11.288;2023-05-07T14:43:00;2.90;;;2.03;;
12332;SDS011;6232;48.094;11.288;2023-05-07T14:45:46;2.47;;;2.27;;
12332;SDS011;6232;48.094;11.288;2023-05-07T14:48:31;3.10;;;2.50;;
12332;SDS011;6232;48.094;11.288;2023-05-07T14:51:17;2.87;;;2.57;;
12332;SDS011;6232;48.094;11.288;2023-05-07T14:54:02;3.70;;;2.50;;
12332;SDS011;6232;48.094;11.288;2023-05-07T14:56:48;3.13;;;2.70;;
12332;SDS011;6232;48.094;11.288;2023-05-07T14:59:34;2.80;;;2.50;;
12332;SDS011;6232;48.094;11.288;2023-05-07T15:02:19;4.87;;;2.87;;
12332;SDS011;6232;48.094;11.288;2023-05-07T15:05:05;3.10;;;2.90;;
12332;SDS011;6232;48.094;11.288;2023-05-07T15:07:51;3.50;;;3.20;;
12332;SDS011;6232;48.094;11.288;2023-05-07T15:10:37;4.97;;;3.30;;
12332;SDS011;6232;48.094;11.288;2023-05-07T15:13:26;3.30;;;3.00;;
12332;SDS011;6232;48.094;11.288;2023-05-07T15:16:11;3.73;;;3.30;;
12332;SDS011;6232;48.094;11.288;2023-05-07T15:18:57;6.30;;;3.63;;
12332;SDS011;6232;48.094;11.288;2023-05-07T15:21:42;5.50;;;3.37;;
12332;SDS011;6232;48.094;11.288;2023-05-07T15:24:28;3.50;;;3.20;;
12332;SDS011;6232;48.094;11.288;2023-05-07T15:27:14;4.77;;;4.07;;
12332;SDS011;6232;48.094;11.288;2023-05-07T15:30:00;6.93;;;2.90;;
12332;SDS011;6232;48.094;11.288;2023-05-07T15:32:46;4.70;;;2.90;;
12332;SDS011;6232;48.094;11.288;2023-05-07T15:35:32;15.83;;;3.43;;
12332;SDS011;6232;48.094;11.288;2023-05-07T15:38:18;3.53;;;3.00;;
12332;SDS011;6232;48.094;11.288;2023-05-07T15:41:03;3.93;;;3.20;;
12332;SDS011;6232;48.094;11.288;2023-05-07T15:43:50;5.93;;;3.40;;
12332;SDS011;6232;48.094;11.288;2023-05-07T15:46:35;4.10;;;3.50;;
12332;SDS011;6232;48.094;11.288;2023-05-07T15:49:21;5.37;;;3.97;;
12332;SDS011;6232;48.094;11.288;2023-05-07T15:52:07;4.90;;;3.10;;
12332;SDS011;6232;48.094;11.288;2023-05-07T15:54:55;3.23;;;2.93;;
12332;SDS011;6232;48.094;11.288;2023-05-07T15:57:41;3.03;;;2.60;;
12332;SDS011;6232;48.094;11.288;2023-05-07T16:00:06;3.70;;;3.30;;
12332;SDS011;6232;48.094;11.288;2023-05-07T16:02:44;2.70;;;2.50;;
12332;SDS011;6232;48.094;11.288;2023-05-07T16:05:10;2.80;;;2.60;;
12332;SDS011;6232;48.094;11.288;2023-05-07T16:07:37;4.40;;;2.60;;
12332;SDS011;6232;48.094;11.288;2023-05-07T16:10:03;6.60;;;2.80;;
12332;SDS011;6232;48.094;11.288;2023-05-07T16:12:28;3.20;;;2.80;;
12332;SDS011;6232;48.094;11.288;2023-05-07T16:14:53;4.47;;;2.70;;
12332;SDS011;6232;48.094;11.288;2023-05-07T16:17:19;3.07;;;2.80;;
12332;SDS011;6232;48.094;11.288;2023-05-07T16:19:44;2.70;;;2.37;;
12332;SDS011;6232;48.094;11.288;2023-05-07T16:22:10;3.33;;;3.00;;
12332;SDS011;6232;48.094;11.288;2023-05-07T16:24:36;3.33;;;3.03;;
12332;SDS011;6232;48.094;11.288;2023-05-07T16:27:01;5.97;;;2.60;;
12332;SDS011;6232;48.094;11.288;2023-05-07T16:29:26;5.60;;;3.13;;
12332;SDS011;6232;48.094;11.288;2023-05-07T16:31:52;4.03;;;3.60;;
12332;SDS011;6232;48.094;11.288;2023-05-07T16:34:18;3.53;;;3.20;;
12332;SDS011;6232;48.094;11.288;2023-05-07T16:37:02;4.57;;;2.90;;
12332;SDS011;6232;48.094;11.288;2023-05-07T16:39:47;4.90;;;3.03;;
12332;SDS011;6232;48.094;11.288;2023-05-07T16:42:33;3.13;;;2.83;;
12332;SDS011;6232;48.094;11.288;2023-05-07T16:45:19;2.53;;;2.33;;
12332;SDS011;6232;48.094;11.288;2023-05-07T16:48:05;3.40;;;2.93;;